Time;durP1;ratioP1;P1;durP2;ratioP2;P2;SDS_P1;SDS_P2;PMS_P1;PMS_P2;Temp;Humidity;BMP_temperature;BMP_pressure;BME280_temperature;BME280_humidity;BME280_pressure;Samples;Min_cycle;Max_cycle;Signal;HPM_P1;HPM_P2
2022/06/13 00:00:10;;;;;;;4.93;3.70;;;17.60;99.90;;;;;;4989893;28;20462;-77
2022/06/13 00:02:36;;;;;;;4.80;3.20;;;17.50;99.90;;;;;;4990330;28;20220;-80
2022/06/13 00:05:04;;;;;;;5.30;2.90;;;17.50;99.90;;;;;;4989902;28;20478;-79
2022/06/13 00:07:30;;;;;;;5.93;3.50;;;17.50;99.90;;;;;;4973740;28;20550;-80
2022/06/13 00:09:56;;;;;;;5.47;3.77;;;17.50;99.90;;;;;;4973638;28;20435;-80
2022/06/13 00:12:23;;;;;;;11.07;2.97;;;17.50;99.90;;;;;;5006521;28;20460;-80
2022/06/13 00:14:48;;;;;;;5.67;2.90;;;17.40;99.90;;;;;;5006194;28;20952;-80
2022/06/13 00:17:14;;;;;;;3.77;2.87;;;17.40;99.90;;;;;;4989824;28;20444;-79
2022/06/13 00:19:39;;;;;;;4.30;2.83;;;17.40;99.90;;;;;;5006326;28;20209;-79
2022/06/13 00:22:05;;;;;;;7.90;3.20;;;17.30;99.90;;;;;;4990861;28;20225;-80
2022/06/13 00:24:32;;;;;;;4.93;3.40;;;17.30;99.90;;;;;;4975804;28;20225;-81
2022/06/13 00:26:57;;;;;;;2.93;2.73;;;17.30;99.90;;;;;;4993551;28;20908;-81
2022/06/13 00:29:23;;;;;;;4.00;2.90;;;17.30;99.90;;;;;;4991425;28;20426;-81
2022/06/13 00:31:49;;;;;;;3.07;2.70;;;17.30;99.90;;;;;;4991272;28;20185;-81
2022/06/13 00:34:15;;;;;;;4.50;2.73;;;17.20;99.90;;;;;;4958299;28;20196;-81
2022/06/13 00:36:40;;;;;;;2.97;2.67;;;17.20;99.90;;;;;;5007448;28;20206;-81
2022/06/13 00:39:06;;;;;;;4.70;3.57;;;17.10;99.90;;;;;;4991647;28;20211;-81
2022/06/13 00:41:35;;;;;;;3.20;2.30;;;17.00;99.90;;;;;;4991081;28;20203;-81
2022/06/13 00:44:01;;;;;;;3.90;2.87;;;17.00;99.90;;;;;;4975711;28;20223;-82
2022/06/13 00:46:31;;;;;;;4.80;3.10;;;16.90;99.90;;;;;;4975579;28;20428;-81
2022/06/13 00:49:23;;;;;;;15.93;3.77;;;16.60;99.90;;;;;;4992225;28;20420;-80
2022/06/13 00:52:01;;;;;;;5.13;2.90;;;16.50;99.90;;;;;;4993954;28;20398;-81
2022/06/13 00:54:27;;;;;;;3.10;2.47;;;16.60;99.90;;;;;;4992675;28;20522;-80
2022/06/13 00:56:53;;;;;;;6.20;3.90;;;16.70;99.90;;;;;;4993061;28;20472;-81
2022/06/13 00:59:23;;;;;;;3.93;2.90;;;16.80;99.90;;;;;;4995511;28;20175;-80
2022/06/13 01:01:49;;;;;;;6.23;3.30;;;16.90;99.90;;;;;;5010020;28;20426;-80
2022/06/13 01:04:16;;;;;;;9.30;4.03;;;16.90;99.90;;;;;;5006738;28;20436;-78
2022/06/13 01:06:46;;;;;;;3.63;3.33;;;16.90;99.90;;;;;;4989612;28;20421;-79
2022/06/13 01:09:17;;;;;;;7.13;3.87;;;16.90;99.90;;;;;;5006113;28;20464;-78
2022/06/13 01:11:47;;;;;;;6.70;4.97;;;16.70;99.90;;;;;;4990713;28;20428;-79
2022/06/13 01:14:15;;;;;;;4.30;3.20;;;16.50;99.90;;;;;;4988837;28;20449;-78
2022/06/13 01:16:50;;;;;;;8.27;3.37;;;16.30;99.90;;;;;;4989558;28;20416;-80
2022/06/13 01:19:34;;;;;;;4.70;3.13;;;16.30;99.90;;;;;;4989873;28;20422;-81
2022/06/13 01:22:15;;;;;;;5.63;3.33;;;16.30;99.90;;;;;;4988178;28;20445;-82
2022/06/13 01:25:13;;;;;;;5.03;3.53;;;16.40;99.90;;;;;;4988380;28;20517;-83
2022/06/13 01:27:50;;;;;;;3.97;2.90;;;16.40;99.90;;;;;;4988903;28;20514;-82
2022/06/13 01:30:31;;;;;;;8.53;3.53;;;16.50;99.90;;;;;;4989040;28;20431;-82
2022/06/13 01:33:31;;;;;;;7.00;3.00;;;16.60;99.90;;;;;;4988345;28;20541;-82
2022/06/13 01:36:15;;;;;;;4.63;3.50;;;16.70;99.90;;;;;;4988643;28;20534;-83
2022/06/13 01:38:51;;;;;;;4.43;3.30;;;16.70;99.90;;;;;;4988830;28;20415;-82
2022/06/13 01:41:31;;;;;;;3.87;3.57;;;16.80;99.90;;;;;;4988295;28;20461;-83
2022/06/13 01:44:17;;;;;;;4.60;4.00;;;16.90;99.90;;;;;;5004852;28;20972;-83
2022/06/13 01:46:48;;;;;;;3.67;3.30;;;16.90;99.90;;;;;;5004901;28;20486;-82
2022/06/13 01:49:27;;;;;;;5.50;3.80;;;16.80;99.90;;;;;;5004733;28;20430;-84
2022/06/13 01:52:11;;;;;;;4.97;4.10;;;16.90;99.90;;;;;;4988646;28;20831;-83
2022/06/13 01:54:45;;;;;;;6.60;3.97;;;16.90;99.90;;;;;;4988840;28;20416;-83
2022/06/13 01:57:35;;;;;;;6.30;3.83;;;16.90;99.90;;;;;;5004771;28;20517;-81
2022/06/13 02:00:07;;;;;;;5.23;3.63;;;16.90;99.90;;;;;;5004437;28;20414;-81
2022/06/13 02:03:01;;;;;;;6.27;4.70;;;16.90;99.90;;;;;;5004192;28;20451;-81
2022/06/13 02:05:38;;;;;;;4.33;4.00;;;16.80;99.90;;;;;;4987564;28;20469;-81
2022/06/13 02:08:19;;;;;;;3.57;3.27;;;16.80;99.90;;;;;;5004098;28;20503;-80
2022/06/13 02:11:07;;;;;;;6.00;3.77;;;16.80;99.90;;;;;;4988113;28;20904;-79
2022/06/13 02:13:41;;;;;;;4.13;3.73;;;16.70;99.90;;;;;;4949955;28;1184074;-80
2022/06/13 02:16:14;;;;;;;4.00;3.43;;;16.50;99.90;;;;;;5009041;28;20186;-79
2022/06/13 02:19:04;;;;;;;5.07;4.20;;;16.40;99.90;;;;;;4994285;28;20520;-78
2022/06/13 02:21:52;;;;;;;9.10;3.73;;;16.40;99.90;;;;;;4994707;28;20434;-80
2022/06/13 02:24:22;;;;;;;4.60;3.50;;;16.30;99.90;;;;;;4992823;28;21239;-79
2022/06/13 02:26:51;;;;;;;6.03;4.07;;;16.20;99.90;;;;;;5009393;28;20456;-80
2022/06/13 02:29:25;;;;;;;4.80;3.90;;;16.20;99.90;;;;;;4976779;28;20434;-80
2022/06/13 02:31:55;;;;;;;4.47;3.70;;;16.10;99.90;;;;;;5009498;28;20430;-81
2022/06/13 02:34:26;;;;;;;4.30;3.37;;;16.20;99.90;;;;;;5009768;28;20461;-81
2022/06/13 02:37:01;;;;;;;4.30;3.90;;;16.30;99.90;;;;;;5009680;28;20446;-81
2022/06/13 02:39:33;;;;;;;3.80;3.50;;;16.30;99.90;;;;;;5009780;28;20991;-81
2022/06/13 02:42:16;;;;;;;5.33;4.13;;;16.30;99.90;;;;;;5009906;28;20911;-81
2022/06/13 02:44:49;;;;;;;4.70;4.20;;;16.40;99.90;;;;;;4994638;28;21239;-81
2022/06/13 02:47:22;;;;;;;4.77;4.10;;;16.40;99.90;;;;;;4994334;28;20451;-79
2022/06/13 02:49:56;;;;;;;4.60;3.83;;;16.50;99.90;;;;;;4993999;28;21275;-77
2022/06/13 02:52:37;;;;;;;4.33;3.43;;;16.60;99.90;;;;;;4991923;28;20501;-78
2022/06/13 02:55:08;;;;;;;8.60;4.40;;;16.50;99.90;;;;;;4993850;28;20419;-77
2022/06/13 02:58:10;;;;;;;7.37;4.00;;;16.50;99.90;;;;;;4993286;28;20423;-79
2022/06/13 03:00:54;;;;;;;3.60;3.20;;;16.50;99.90;;;;;;4993261;28;21070;-77
2022/06/13 03:03:37;;;;;;;6.00;5.00;;;16.50;99.90;;;;;;4991427;28;20462;-77
2022/06/13 03:06:10;;;;;;;6.63;4.97;;;16.60;99.90;;;;;;4992811;28;20477;-77
2022/06/13 03:08:47;;;;;;;7.60;4.90;;;16.60;99.90;;;;;;4991539;28;20440;-77
2022/06/13 03:11:38;;;;;;;5.63;4.83;;;16.70;99.90;;;;;;4993210;28;20543;-77
2022/06/13 03:14:11;;;;;;;8.80;4.03;;;16.70;99.90;;;;;;4992758;28;20469;-77
2022/06/13 03:17:00;;;;;;;7.33;4.90;;;16.70;99.90;;;;;;4991579;28;20935;-77
2022/06/13 03:19:35;;;;;;;7.73;4.50;;;16.70;99.90;;;;;;4992808;28;20768;-77
2022/06/13 03:22:10;;;;;;;4.53;3.90;;;16.70;99.90;;;;;;4992834;28;20427;-78
2022/06/13 03:24:47;;;;;;;8.30;4.10;;;16.70;99.90;;;;;;4991479;28;20578;-77
2022/06/13 03:27:21;;;;;;;7.50;5.70;;;16.80;99.90;;;;;;4991899;28;20457;-77
2022/06/13 03:29:52;;;;;;;5.97;4.30;;;16.80;99.90;;;;;;4991853;28;20420;-77
2022/06/13 03:32:24;;;;;;;6.13;3.73;;;16.80;99.90;;;;;;4991210;28;20504;-78
2022/06/13 03:34:53;;;;;;;6.83;5.07;;;16.80;99.90;;;;;;5009421;28;20949;-80
2022/06/13 03:37:44;;;;;;;5.70;4.40;;;16.80;99.90;;;;;;5009839;28;20956;-79
2022/06/13 03:40:16;;;;;;;4.97;4.57;;;16.90;99.90;;;;;;4993641;28;20439;-79
2022/06/13 03:43:11;;;;;;;6.73;4.97;;;16.80;99.90;;;;;;4993627;28;20883;-80
2022/06/13 03:45:50;;;;;;;5.03;4.53;;;16.80;99.90;;;;;;4986056;28;20490;-79
2022/06/13 03:48:22;;;;;;;14.00;4.73;;;16.90;99.90;;;;;;5008951;28;20932;-79
2022/06/13 03:50:53;;;;;;;5.47;4.97;;;16.90;99.90;;;;;;4991901;28;20433;-79
2022/06/13 03:53:25;;;;;;;5.50;4.27;;;16.90;99.90;;;;;;4990526;28;20542;-79
2022/06/13 03:56:10;;;;;;;9.17;4.33;;;16.90;99.90;;;;;;5006515;28;20440;-79
2022/06/13 03:59:12;;;;;;;5.83;5.10;;;16.90;99.90;;;;;;4991610;28;20470;-78
2022/06/13 04:01:43;;;;;;;7.30;4.33;;;17.00;99.90;;;;;;4991807;28;20907;-78
2022/06/13 04:04:20;;;;;;;5.40;4.40;;;17.00;99.90;;;;;;4991156;28;20811;-78
2022/06/13 04:06:47;;;;;;;5.50;4.13;;;17.10;99.90;;;;;;4991416;28;20440;-79
2022/06/13 04:09:20;;;;;;;4.60;4.20;;;17.00;99.90;;;;;;5006016;28;20436;-79
2022/06/13 04:12:11;;;;;;;6.33;4.80;;;17.10;99.90;;;;;;5006054;28;20438;-77
2022/06/13 04:14:54;;;;;;;9.17;5.20;;;17.10;99.90;;;;;;4991031;28;20456;-77
2022/06/13 04:17:39;;;;;;;7.00;5.10;;;17.10;99.90;;;;;;4990878;28;20425;-77
2022/06/13 04:20:44;;;;;;;9.40;5.03;;;17.10;99.90;;;;;;4991769;28;20533;-77
2022/06/13 04:23:57;;;;;;;5.53;4.97;;;17.10;99.90;;;;;;4990828;28;20446;-77
2022/06/13 04:26:56;;;;;;;9.47;5.60;;;17.10;99.90;;;;;;4930157;29;20540;-77
2022/06/13 04:29:32;;;;;;;7.03;5.03;;;17.10;99.90;;;;;;4990570;28;20506;-77
2022/06/13 04:32:02;;;;;;;6.30;5.57;;;17.10;99.90;;;;;;4995463;28;20406;-77
2022/06/13 04:34:35;;;;;;;5.50;4.33;;;17.00;99.90;;;;;;5010881;28;20439;-77
2022/06/13 04:37:04;;;;;;;8.87;5.10;;;17.00;99.90;;;;;;4991231;28;20956;-77
2022/06/13 04:39:33;;;;;;;8.70;4.70;;;17.00;99.90;;;;;;4991679;28;21075;-77
2022/06/13 04:42:02;;;;;;;9.10;4.60;;;17.00;99.90;;;;;;4990990;28;20455;-77
2022/06/13 04:44:31;;;;;;;11.40;4.83;;;17.10;99.90;;;;;;4990421;28;20427;-77
2022/06/13 04:46:58;;;;;;;12.23;4.53;;;17.00;99.90;;;;;;4990359;28;20814;-77
2022/06/13 04:49:54;;;;;;;7.77;4.27;;;17.10;99.90;;;;;;4990123;28;20427;-77
2022/06/13 04:52:29;;;;;;;12.57;4.70;;;17.00;99.90;;;;;;4990698;28;20497;-77
2022/06/13 04:55:05;;;;;;;8.20;3.87;;;16.90;99.90;;;;;;4991705;28;20423;-77
2022/06/13 04:57:32;;;;;;;6.60;4.10;;;16.90;99.90;;;;;;4990694;28;20434;-77
2022/06/13 04:59:58;;;;;;;8.23;3.93;;;16.90;99.90;;;;;;4989185;28;20476;-77
2022/06/13 05:02:36;;;;;;;11.50;4.10;;;16.90;99.90;;;;;;4972521;28;21042;-77
2022/06/13 05:05:04;;;;;;;9.33;3.97;;;17.00;99.90;;;;;;5004984;28;20216;-77
2022/06/13 05:07:33;;;;;;;10.03;3.43;;;17.00;99.90;;;;;;4990256;28;20923;-77
2022/06/13 05:10:02;;;;;;;8.87;4.33;;;17.00;99.90;;;;;;4972681;28;20439;-77
2022/06/13 05:12:48;;;;;;;10.97;4.17;;;17.00;99.90;;;;;;5004910;28;20456;-78
2022/06/13 05:15:28;;;;;;;10.80;3.60;;;17.20;99.90;;;;;;4989540;28;20441;-77
2022/06/13 05:18:10;;;;;;;12.57;3.97;;;17.30;99.90;;;;;;4988586;28;20844;-77
2022/06/13 05:21:03;;;;;;;6.23;3.37;;;17.40;99.90;;;;;;4989981;28;20427;-77
2022/06/13 05:24:06;;;;;;;9.00;3.30;;;17.50;99.90;;;;;;5004892;28;20978;-77
2022/06/13 05:26:32;;;;;;;7.30;3.40;;;17.50;99.90;;;;;;4989926;28;20467;-77
2022/06/13 05:29:00;;;;;;;12.83;3.30;;;17.50;99.90;;;;;;4988569;28;20502;-77
2022/06/13 05:31:27;;;;;;;12.37;3.60;;;17.60;99.90;;;;;;5004769;28;20193;-77
2022/06/13 05:33:54;;;;;;;12.03;3.30;;;17.60;99.90;;;;;;4989960;28;20505;-77
2022/06/13 05:36:23;;;;;;;12.77;4.03;;;17.50;99.90;;;;;;4989802;28;21253;-78
2022/06/13 05:38:54;;;;;;;7.83;3.53;;;17.40;99.90;;;;;;4988758;28;20487;-77
2022/06/13 05:41:20;;;;;;;12.67;3.40;;;17.40;99.90;;;;;;4990490;28;20513;-77
2022/06/13 05:43:46;;;;;;;8.70;3.50;;;17.50;99.90;;;;;;4990336;28;20557;-78
2022/06/13 05:46:28;;;;;;;9.07;3.20;;;17.60;99.90;;;;;;4989065;28;20219;-78
2022/06/13 05:48:54;;;;;;;10.13;3.00;;;17.50;99.90;;;;;;4991055;28;20265;-77
2022/06/13 05:51:20;;;;;;;7.43;3.00;;;17.60;99.90;;;;;;4990737;28;20531;-77
2022/06/13 05:53:45;;;;;;;9.30;3.17;;;17.70;99.90;;;;;;4990559;28;21004;-78
2022/06/13 05:56:12;;;;;;;7.03;2.60;;;17.60;99.90;;;;;;4988911;28;20197;-77
2022/06/13 05:58:38;;;;;;;12.17;3.80;;;17.60;99.90;;;;;;4990260;28;20185;-77
2022/06/13 06:01:05;;;;;;;10.40;3.30;;;17.60;99.90;;;;;;4990732;28;20436;-78
2022/06/13 06:03:32;;;;;;;8.87;3.70;;;17.60;99.90;;;;;;4988646;28;20453;-78
2022/06/13 06:05:59;;;;;;;11.83;3.50;;;17.70;99.90;;;;;;4988249;28;20478;-77
2022/06/13 06:08:35;;;;;;;13.70;4.20;;;17.70;99.90;;;;;;5004751;28;20424;-78
2022/06/13 06:11:01;;;;;;;11.07;4.07;;;17.60;99.90;;;;;;4989133;28;20515;-78
2022/06/13 06:13:28;;;;;;;9.13;3.33;;;17.70;99.90;;;;;;4989629;28;20476;-79
2022/06/13 06:15:55;;;;;;;8.77;3.67;;;17.70;99.90;;;;;;5004334;28;20796;-78
2022/06/13 06:18:22;;;;;;;11.10;3.33;;;17.70;99.90;;;;;;4987945;28;20579;-78
2022/06/13 06:20:48;;;;;;;11.07;3.53;;;17.80;99.90;;;;;;5004855;28;20518;-79
2022/06/13 06:23:14;;;;;;;10.73;3.00;;;17.90;99.90;;;;;;4991215;28;20450;-78
2022/06/13 06:25:41;;;;;;;10.70;3.27;;;17.90;99.90;;;;;;4974812;28;20471;-79
2022/06/13 06:28:07;;;;;;;11.67;3.70;;;18.00;99.90;;;;;;4994751;28;20183;-79
2022/06/13 06:30:33;;;;;;;6.83;3.13;;;18.00;99.90;;;;;;4995053;28;20439;-79
2022/06/13 06:33:00;;;;;;;18.63;4.20;;;18.20;99.90;;;;;;4993035;28;20449;-79
2022/06/13 06:35:28;;;;;;;15.77;4.93;;;18.30;99.90;;;;;;5009788;28;20440;-79
2022/06/13 06:37:55;;;;;;;9.63;3.03;;;18.30;99.90;;;;;;5010594;28;20433;-79
2022/06/13 06:40:24;;;;;;;9.40;3.30;;;18.30;99.90;;;;;;4993786;28;20439;-79
2022/06/13 06:42:49;;;;;;;12.23;3.57;;;18.40;99.90;;;;;;4995372;28;20455;-79
2022/06/13 06:45:17;;;;;;;11.63;3.53;;;18.40;99.90;;;;;;4994949;28;20476;-78
2022/06/13 06:47:43;;;;;;;7.83;3.30;;;18.40;99.90;;;;;;4993886;28;20182;-79
2022/06/13 06:50:13;;;;;;;11.13;4.37;;;18.40;99.90;;;;;;4992009;28;20426;-79
2022/06/13 06:52:40;;;;;;;7.97;3.57;;;18.40;99.90;;;;;;5007652;28;20262;-79
2022/06/13 07:00:37;;;;;;;7.00;3.20;;;18.60;99.90;;;;;;4995525;28;20431;-79
2022/06/13 07:03:03;;;;;;;8.80;3.87;;;18.60;99.90;;;;;;5011165;28;20897;-79
2022/06/13 07:05:29;;;;;;;9.83;3.80;;;18.60;99.90;;;;;;4996673;28;20507;-79
2022/06/13 07:07:54;;;;;;;11.47;4.13;;;18.70;99.90;;;;;;4994373;28;20220;-79
2022/06/13 07:10:20;;;;;;;12.00;3.67;;;18.70;99.90;;;;;;4994385;28;20452;-78
2022/06/13 07:12:46;;;;;;;15.30;4.30;;;18.80;99.90;;;;;;4993784;28;20891;-79
2022/06/13 07:15:14;;;;;;;10.23;4.60;;;18.90;99.90;;;;;;4997070;28;20203;-79
2022/06/13 07:17:40;;;;;;;12.20;4.33;;;19.00;99.90;;;;;;4993978;28;20195;-79
2022/06/13 07:20:06;;;;;;;9.83;3.57;;;18.90;99.90;;;;;;4977090;28;20441;-79
2022/06/13 07:22:32;;;;;;;11.07;4.00;;;18.80;99.90;;;;;;4994272;28;20224;-79
2022/06/13 07:24:58;;;;;;;14.20;3.80;;;18.70;99.90;;;;;;4994200;28;20484;-79
2022/06/13 07:27:23;;;;;;;13.80;4.10;;;18.60;99.90;;;;;;4993074;28;20218;-78
2022/06/13 07:29:49;;;;;;;11.60;4.33;;;18.60;99.90;;;;;;4991603;28;20893;-78
2022/06/13 07:32:25;;;;;;;9.17;4.10;;;18.70;99.90;;;;;;4992779;28;20208;-78
2022/06/13 07:34:52;;;;;;;12.47;3.90;;;18.80;99.90;;;;;;4992329;28;20191;-79
2022/06/13 07:40:08;;;;;;;16.80;3.60;;;18.90;99.90;;;;;;4992030;28;20435;-78
2022/06/13 07:42:55;;;;;;;9.13;3.20;;;19.00;99.90;;;;;;4974151;28;20453;-78
2022/06/13 07:45:24;;;;;;;12.07;3.40;;;19.20;99.90;;;;;;4991751;28;20523;-78
2022/06/13 07:47:51;;;;;;;17.97;5.90;;;19.10;99.90;;;;;;4990396;28;20433;-78
2022/06/13 07:50:20;;;;;;;7.70;3.80;;;19.00;99.90;;;;;;4991458;28;20413;-77
2022/06/13 07:52:50;;;;;;;13.77;3.87;;;19.10;99.90;;;;;;4991506;28;20444;-77
2022/06/13 07:55:17;;;;;;;9.13;3.17;;;19.10;99.90;;;;;;4989917;28;20482;-78
2022/06/13 07:57:44;;;;;;;9.87;3.67;;;19.20;99.90;;;;;;4990831;28;20479;-78
2022/06/13 08:00:18;;;;;;;9.23;3.40;;;19.40;99.90;;;;;;4990544;28;20431;-77
2022/06/13 08:02:44;;;;;;;6.93;3.17;;;19.40;99.90;;;;;;4990405;28;20481;-77
2022/06/13 08:05:09;;;;;;;7.03;3.30;;;19.40;99.90;;;;;;4990075;28;20511;-78
2022/06/13 08:07:35;;;;;;;7.10;3.30;;;19.50;99.90;;;;;;4988853;28;20865;-77
2022/06/13 08:10:01;;;;;;;9.73;3.20;;;19.60;99.90;;;;;;4987543;28;20189;-78
2022/06/13 08:12:26;;;;;;;14.73;3.50;;;19.50;99.90;;;;;;4988643;28;20664;-77
2022/06/13 08:14:52;;;;;;;10.30;3.47;;;19.70;99.90;;;;;;4988512;28;20213;-77
2022/06/13 08:17:22;;;;;;;8.97;3.47;;;19.70;99.90;;;;;;4988600;28;20197;-78
2022/06/13 08:19:49;;;;;;;8.57;3.03;;;19.50;99.90;;;;;;4990006;28;20293;-77
2022/06/13 08:22:16;;;;;;;17.17;3.67;;;19.50;99.90;;;;;;4988514;28;20690;-78
2022/06/13 08:24:41;;;;;;;10.37;3.47;;;19.50;99.90;;;;;;4990001;28;20467;-78
2022/06/13 08:27:08;;;;;;;11.33;3.13;;;19.60;99.90;;;;;;4989848;28;20421;-77
2022/06/13 08:29:33;;;;;;;7.83;3.33;;;19.80;99.90;;;;;;5004882;28;20186;-77
2022/06/13 08:32:01;;;;;;;12.07;3.47;;;19.90;99.90;;;;;;4972605;28;20491;-78
2022/06/13 08:34:27;;;;;;;6.13;2.67;;;20.10;99.90;;;;;;4989021;28;20208;-78
2022/06/13 08:36:53;;;;;;;10.07;2.90;;;20.20;99.90;;;;;;4990206;28;20501;-78
2022/06/13 08:39:19;;;;;;;9.77;3.30;;;20.30;99.90;;;;;;4989544;28;20421;-78
2022/06/13 08:42:11;;;;;;;10.47;2.70;;;20.50;99.90;;;;;;4990092;28;20417;-78
2022/06/13 08:44:59;;;;;;;7.93;3.07;;;20.80;99.90;;;;;;4992373;28;20177;-77
2022/06/13 08:47:40;;;;;;;15.90;3.80;;;21.10;99.90;;;;;;4992365;28;20421;-78
2022/06/13 08:50:15;;;;;;;10.43;2.83;;;21.40;99.90;;;;;;4992825;28;20436;-78
2022/06/13 08:52:55;;;;;;;10.30;2.77;;;21.60;99.90;;;;;;4992396;28;20425;-78
2022/06/13 08:55:42;;;;;;;13.30;3.57;;;21.80;99.90;;;;;;4992591;28;20416;-78
2022/06/13 08:58:11;;;;;;;11.53;3.57;;;21.90;99.90;;;;;;4991043;28;20424;-78
2022/06/13 09:00:42;;;;;;;13.57;2.80;;;22.20;99.90;;;;;;4990975;28;20853;-78
2022/06/13 09:03:12;;;;;;;6.57;3.07;;;22.30;98.90;;;;;;5006873;28;20449;-78
2022/06/13 09:06:16;;;;;;;8.10;3.33;;;22.40;99.90;;;;;;4991049;28;20464;-78
2022/06/13 09:09:02;;;;;;;12.73;3.53;;;22.10;99.90;;;;;;4966381;28;20422;-78
2022/06/13 09:11:35;;;;;;;9.87;2.80;;;21.80;99.90;;;;;;4991785;28;21021;-77
2022/06/13 09:14:09;;;;;;;10.60;2.80;;;21.80;99.90;;;;;;4990713;28;20456;-77
2022/06/13 09:16:37;;;;;;;11.00;3.30;;;21.80;99.90;;;;;;5006225;28;20453;-78
2022/06/13 09:19:20;;;;;;;6.53;2.40;;;22.00;99.90;;;;;;4989218;28;20425;-78
2022/06/13 09:22:29;;;;;;;13.03;2.67;;;22.30;99.90;;;;;;4990346;28;20495;-77
2022/06/13 09:25:00;;;;;;;5.83;2.90;;;22.60;98.10;;;;;;4960061;28;20466;-77
2022/06/13 09:27:39;;;;;;;7.70;2.87;;;22.20;98.30;;;;;;4989010;28;20950;-77
2022/06/13 09:30:12;;;;;;;13.77;2.50;;;22.40;99.80;;;;;;4990034;28;20424;-78
2022/06/13 09:32:44;;;;;;;9.63;2.90;;;22.90;98.70;;;;;;4989641;28;20525;-77
2022/06/13 09:35:16;;;;;;;7.03;2.83;;;23.10;98.20;;;;;;4989995;28;20452;-77
2022/06/13 09:37:49;;;;;;;7.97;3.37;;;23.20;98.20;;;;;;4988880;28;20426;-77
2022/06/13 09:40:25;;;;;;;16.40;4.43;;;23.20;97.00;;;;;;4989920;28;20476;-77
2022/06/13 09:43:16;;;;;;;5.00;2.80;;;22.60;96.90;;;;;;4990370;28;20489;-77
2022/06/13 09:45:57;;;;;;;7.30;2.40;;;22.10;96.50;;;;;;4989586;28;20466;-77
2022/06/13 09:48:55;;;;;;;11.83;3.10;;;22.30;99.60;;;;;;4987181;28;20798;-77
2022/06/13 09:51:42;;;;;;;7.87;2.37;;;22.90;96.70;;;;;;4960771;28;20864;-77
2022/06/13 09:54:46;;;;;;;9.10;2.60;;;23.70;96.70;;;;;;4988663;28;20531;-77
2022/06/13 09:57:27;;;;;;;10.17;2.73;;;24.20;95.00;;;;;;4988766;28;20420;-77
2022/06/13 10:00:04;;;;;;;8.43;2.50;;;24.60;94.20;;;;;;4990494;28;20423;-77
2022/06/13 10:02:39;;;;;;;7.40;2.70;;;24.10;93.60;;;;;;4989862;28;20445;-76
2022/06/13 10:05:22;;;;;;;8.63;2.13;;;23.50;93.90;;;;;;4988454;28;20461;-77
2022/06/13 10:08:00;;;;;;;7.67;3.13;;;22.90;93.80;;;;;;4987416;28;20521;-76
2022/06/13 10:10:44;;;;;;;5.70;2.67;;;22.90;95.00;;;;;;4988819;28;20423;-76
2022/06/13 10:13:54;;;;;;;8.17;2.30;;;23.50;94.80;;;;;;4988451;28;20455;-76
2022/06/13 10:16:41;;;;;;;5.30;2.73;;;24.10;94.20;;;;;;4988893;28;21335;-77
2022/06/13 10:19:38;;;;;;;6.37;2.40;;;24.20;91.10;;;;;;4988183;28;20429;-78
2022/06/13 10:22:17;;;;;;;7.33;3.00;;;24.50;91.20;;;;;;4988793;28;20419;-80
2022/06/13 10:24:43;;;;;;;4.93;2.30;;;24.80;90.90;;;;;;4992182;28;20428;-80
2022/06/13 10:27:14;;;;;;;8.60;2.67;;;25.10;91.10;;;;;;4993353;28;20423;-79
2022/06/13 10:30:15;;;;;;;3.67;2.23;;;25.20;90.20;;;;;;4993059;28;20196;-79
2022/06/13 10:33:05;;;;;;;9.87;2.10;;;24.70;89.40;;;;;;4992904;28;21116;-78
2022/06/13 10:35:49;;;;;;;6.03;2.33;;;24.70;91.30;;;;;;4997672;28;20428;-78
2022/06/13 10:38:48;;;;;;;8.23;2.47;;;24.80;90.30;;;;;;4997328;28;20428;-77
2022/06/13 10:41:14;;;;;;;10.63;3.20;;;25.20;90.30;;;;;;4998904;28;20421;-79
2022/06/13 10:43:42;;;;;;;5.53;2.00;;;25.40;90.20;;;;;;4996352;28;20450;-77
2022/06/13 10:46:11;;;;;;;8.30;2.27;;;25.70;89.10;;;;;;5002326;28;20208;-79
2022/06/13 10:49:13;;;;;;;4.77;1.80;;;25.90;82.90;;;;;;5008759;28;20442;-77
2022/06/13 10:51:39;;;;;;;5.40;1.67;;;26.00;77.20;;;;;;4992138;28;20531;-77
2022/06/13 10:54:12;;;;;;;4.47;1.67;;;26.10;74.30;;;;;;4992176;28;20451;-77
2022/06/13 10:56:40;;;;;;;9.77;1.90;;;26.20;74.10;;;;;;5009045;28;20443;-77
2022/06/13 10:59:19;;;;;;;6.53;1.60;;;25.70;74.90;;;;;;4994148;28;20511;-77
2022/06/13 11:01:54;;;;;;;5.50;2.00;;;25.10;77.30;;;;;;4992942;28;20427;-77
2022/06/13 11:04:19;;;;;;;5.17;2.07;;;25.40;79.50;;;;;;4990969;28;20424;-77
2022/06/13 11:06:54;;;;;;;4.53;2.00;;;25.70;77.60;;;;;;4990213;28;20489;-77
2022/06/13 11:09:26;;;;;;;3.50;1.80;;;25.80;75.40;;;;;;4990455;28;20685;-77
2022/06/13 11:11:59;;;;;;;7.27;2.40;;;26.10;74.10;;;;;;4991682;28;20420;-77
2022/06/13 11:23:38;;;;;;;7.03;1.83;;;25.80;75.60;;;;;;4988034;28;20452;-77
2022/06/13 11:27:39;;;;;;;4.10;1.60;;;26.10;77.60;;;;;;4991425;28;20464;-77
2022/06/13 11:28:50;;;;;;;7.13;2.10;;;25.80;73.60;;;;;;4991012;28;20425;-77
2022/06/13 11:31:26;;;;;;;5.03;2.03;;;25.10;75.00;;;;;;4991398;28;20453;-77
2022/06/13 11:33:53;;;;;;;3.97;1.70;;;24.90;76.90;;;;;;4990586;28;20449;-77
2022/06/13 11:36:26;;;;;;;4.80;2.03;;;25.00;79.00;;;;;;4991491;28;20922;-77
2022/06/13 11:39:04;;;;;;;4.10;1.87;;;25.00;77.80;;;;;;4990332;28;20436;-77
2022/06/13 11:41:46;;;;;;;3.17;1.73;;;25.10;74.10;;;;;;4991976;28;20411;-77
2022/06/13 11:44:18;;;;;;;4.00;1.73;;;24.50;75.30;;;;;;4991010;28;20814;-77
2022/06/13 11:46:51;;;;;;;3.10;1.80;;;24.80;77.00;;;;;;4991441;28;20503;-77
2022/06/13 11:49:17;;;;;;;4.03;2.00;;;25.10;76.60;;;;;;4991662;28;20416;-77
2022/06/13 11:52:05;;;;;;;7.60;1.77;;;25.00;78.10;;;;;;4991899;28;20421;-79
2022/06/13 11:54:41;;;;;;;5.20;1.97;;;25.40;77.60;;;;;;5006712;28;20730;-77
2022/06/13 11:57:13;;;;;;;7.00;2.33;;;25.40;75.90;;;;;;4991491;28;20416;-77
2022/06/13 11:59:56;;;;;;;7.00;2.53;;;25.00;75.40;;;;;;4991861;28;20490;-77
2022/06/13 12:02:47;;;;;;;8.60;2.03;;;25.30;76.40;;;;;;5006851;28;20484;-77
2022/06/13 12:05:21;;;;;;;7.33;2.17;;;25.70;74.50;;;;;;4961063;28;20563;-77
2022/06/13 12:07:51;;;;;;;7.00;2.07;;;26.30;76.10;;;;;;4992000;28;20429;-77
2022/06/13 12:10:25;;;;;;;2.27;1.70;;;26.80;75.70;;;;;;4991858;28;20793;-77
2022/06/13 12:12:51;;;;;;;7.40;2.77;;;27.00;70.90;;;;;;4991789;28;20983;-77
2022/06/13 12:15:18;;;;;;;5.03;1.80;;;26.40;70.50;;;;;;5006672;28;20448;-77
2022/06/13 12:17:52;;;;;;;2.87;1.80;;;26.50;73.10;;;;;;4991917;28;20855;-77
2022/06/13 12:20:31;;;;;;;3.57;1.50;;;26.40;72.70;;;;;;4990334;28;20515;-77
2022/06/13 12:23:12;;;;;;;2.00;1.20;;;26.60;70.20;;;;;;4991707;28;20447;-77
2022/06/13 12:25:50;;;;;;;7.57;2.17;;;26.90;68.80;;;;;;4990690;28;20658;-77
2022/06/13 12:28:21;;;;;;;3.53;1.83;;;27.00;66.40;;;;;;4991722;28;20413;-77
2022/06/13 12:31:13;;;;;;;8.00;2.33;;;27.20;68.30;;;;;;5007026;28;20432;-77
2022/06/13 12:33:52;;;;;;;3.50;1.40;;;27.50;65.20;;;;;;4991231;28;20548;-77
2022/06/13 12:36:39;;;;;;;3.03;1.50;;;27.30;64.50;;;;;;4991190;28;20424;-77
2022/06/13 12:39:23;;;;;;;6.03;2.17;;;26.40;64.60;;;;;;4991359;28;20949;-77
2022/06/13 12:42:25;;;;;;;3.63;1.70;;;25.60;66.80;;;;;;4991633;28;20997;-77
2022/06/13 12:45:06;;;;;;;5.43;1.67;;;25.50;68.80;;;;;;4990557;28;20460;-77
2022/06/13 12:48:00;;;;;;;3.53;1.50;;;26.30;70.00;;;;;;4988120;28;20424;-77
2022/06/13 12:50:31;;;;;;;6.93;1.90;;;26.70;65.40;;;;;;4987808;28;20421;-77
2022/06/13 12:53:15;;;;;;;5.60;1.80;;;27.00;69.50;;;;;;4989144;28;20437;-77
2022/06/13 12:55:46;;;;;;;4.63;1.83;;;27.20;64.70;;;;;;4987234;28;20413;-77
2022/06/13 12:58:42;;;;;;;5.20;2.20;;;27.10;63.00;;;;;;4987695;28;21276;-78
2022/06/13 13:01:22;;;;;;;3.80;1.80;;;27.40;64.50;;;;;;4989340;28;20914;-77
2022/06/13 13:03:48;;;;;;;5.10;2.80;;;27.20;64.00;;;;;;4988849;28;20852;-77
2022/06/13 13:06:51;;;;;;;6.27;3.07;;;26.40;64.60;;;;;;4988796;28;20643;-76
2022/06/13 13:09:27;;;;;;;4.40;2.20;;;25.70;68.60;;;;;;4988831;28;20416;-76
2022/06/13 13:11:58;;;;;;;6.83;1.50;;;25.10;67.90;;;;;;4988776;28;20487;-77
2022/06/13 13:14:54;;;;;;;3.80;1.43;;;24.90;65.60;;;;;;4989732;28;20473;-77
2022/06/13 13:17:45;;;;;;;3.93;1.57;;;25.10;67.50;;;;;;4987269;28;20450;-77
2022/06/13 13:20:13;;;;;;;3.43;1.83;;;25.00;67.00;;;;;;4987958;28;20429;-77
2022/06/13 13:22:56;;;;;;;4.13;1.80;;;24.90;66.90;;;;;;4988174;28;20436;-77
2022/06/13 13:25:42;;;;;;;4.17;1.70;;;25.20;67.60;;;;;;4988795;28;20463;-77
2022/06/13 13:28:25;;;;;;;4.27;1.70;;;25.90;69.00;;;;;;4989067;28;20412;-77
2022/06/13 13:30:54;;;;;;;4.00;1.33;;;26.30;66.10;;;;;;4987239;28;21262;-77
2022/06/13 13:33:58;;;;;;;5.80;1.70;;;26.60;67.00;;;;;;4988508;28;20444;-77
2022/06/13 13:36:54;;;;;;;1.73;1.30;;;26.90;64.50;;;;;;4988584;28;20615;-77
2022/06/13 13:39:42;;;;;;;4.20;1.70;;;26.80;60.70;;;;;;4987307;28;20428;-77
2022/06/13 13:42:25;;;;;;;7.13;1.73;;;26.80;61.60;;;;;;4989307;28;21033;-77
2022/06/13 13:44:55;;;;;;;5.13;2.27;;;26.30;63.60;;;;;;4988893;28;20515;-77